createdAt,value
2018-11-14T00:02:24.793Z,98707.20
2018-11-14T00:04:52.920Z,98703.03
2018-11-14T00:07:21.097Z,98704.69
2018-11-14T00:09:49.171Z,98704.69
2018-11-14T00:12:17.585Z,98700.05
2018-11-14T00:14:45.706Z,98707.61
2018-11-14T00:17:13.861Z,98702.16
2018-11-14T00:19:42.016Z,98697.13
2018-11-14T00:22:10.170Z,98695.48
2018-11-14T00:24:38.293Z,98698.84
2018-11-14T00:27:06.436Z,98701.36
2018-11-14T00:29:34.508Z,98698.02
2018-11-14T00:32:02.603Z,98705.97
2018-11-14T00:34:30.736Z,98698.02
2018-11-14T00:36:58.801Z,98700.54
2018-11-14T00:39:26.927Z,98699.70
2018-11-14T00:41:55.037Z,98698.87
2018-11-14T00:44:23.200Z,98698.85
2018-11-14T00:46:51.292Z,98699.28
2018-11-14T00:49:19.368Z,98693.40
2018-11-14T00:51:47.462Z,98695.09
2018-11-14T00:54:15.548Z,98692.97
2018-11-14T00:56:43.624Z,98693.41
2018-11-14T00:59:11.698Z,98693.00
2018-11-14T01:01:39.937Z,98687.95
2018-11-14T01:04:07.922Z,98684.59
2018-11-14T01:06:36.005Z,98688.38
2018-11-14T01:09:05.840Z,98685.84
2018-11-14T01:11:33.915Z,98686.27
2018-11-14T01:14:01.984Z,98685.42
2018-11-14T01:16:30.093Z,98689.22
2018-11-14T01:18:58.189Z,98689.20
2018-11-14T01:21:26.461Z,98688.36
2018-11-14T01:23:54.582Z,98686.27
2018-11-14T01:26:22.805Z,98682.06
2018-11-14T01:28:50.913Z,98681.64
2018-11-14T01:31:19.052Z,98684.16
2018-11-14T01:33:47.154Z,98687.09
2018-11-14T01:36:15.227Z,98692.13
2018-11-14T01:38:43.307Z,98687.11
2018-11-14T01:41:11.420Z,98687.55
2018-11-14T01:43:39.556Z,98687.53
2018-11-14T01:46:07.661Z,98682.91
2018-11-14T01:48:35.766Z,98677.04
2018-11-14T01:51:03.947Z,98683.34
2018-11-14T01:53:32.054Z,98680.39
2018-11-14T01:56:00.578Z,98681.22
2018-11-14T01:58:28.664Z,98678.30
2018-11-14T02:00:56.778Z,98686.25
2018-11-14T02:03:24.905Z,98686.68
2018-11-14T02:05:52.956Z,98682.49
2018-11-14T02:08:21.026Z,98677.02
2018-11-14T02:10:49.081Z,98680.38
2018-11-14T02:13:17.146Z,98672.41
2018-11-14T02:15:45.216Z,98674.10
2018-11-14T02:18:13.287Z,98666.11
2018-11-14T02:20:41.529Z,98670.73
2018-11-14T02:23:09.593Z,98670.73
2018-11-14T02:25:37.656Z,98673.65
2018-11-14T02:28:06.097Z,98674.05
2018-11-14T02:30:34.181Z,98679.08
2018-11-14T02:33:02.311Z,98671.10
2018-11-14T02:35:30.402Z,98674.45
2018-11-14T02:37:58.492Z,98671.94
2018-11-14T02:40:26.579Z,98674.87
2018-11-14T02:42:54.683Z,98672.77
2018-11-14T02:45:22.768Z,98668.56
2018-11-14T02:47:50.867Z,98663.10
2018-11-14T02:50:19.504Z,98663.52
2018-11-14T02:52:47.600Z,98660.58
2018-11-14T02:55:16.781Z,98661.83
2018-11-14T02:57:45.355Z,98662.68
2018-11-14T03:00:15.681Z,98661.39
2018-11-14T03:02:44.161Z,98665.55
2018-11-14T03:05:12.229Z,98662.22
2018-11-14T03:07:40.309Z,98667.65
2018-11-14T03:10:13.398Z,98669.70
2018-11-14T03:12:41.879Z,98669.70
2018-11-14T03:15:12.267Z,98662.58
2018-11-14T03:17:40.330Z,98665.09
2018-11-14T03:20:10.940Z,98663.84
2018-11-14T03:22:39.489Z,98660.05
2018-11-14T03:25:08.628Z,98662.14
2018-11-14T03:27:36.762Z,98649.98
2018-11-14T03:30:06.781Z,98655.02
2018-11-14T03:32:34.861Z,98650.42
2018-11-14T03:35:02.948Z,98657.06
2018-11-14T03:37:31.056Z,98649.06
2018-11-14T03:39:59.128Z,98654.48
2018-11-14T03:42:27.290Z,98643.16
2018-11-14T03:44:55.349Z,98642.27
2018-11-14T03:47:23.514Z,98635.53
2018-11-14T03:49:51.594Z,98645.56
2018-11-14T03:52:19.709Z,98637.94
2018-11-14T03:54:47.831Z,98634.09
2018-11-14T03:57:15.943Z,98634.09
2018-11-14T03:59:44.042Z,98627.76
2018-11-14T04:02:12.128Z,98628.55
2018-11-14T04:04:40.206Z,98632.70
2018-11-14T04:07:08.269Z,98635.23
2018-11-14T04:09:36.352Z,98629.31
2018-11-14T04:12:04.438Z,98637.67
2018-11-14T04:14:32.500Z,98622.23
2018-11-14T04:17:00.624Z,98624.77
2018-11-14T04:19:28.697Z,98621.44
2018-11-14T04:21:56.793Z,98619.34
2018-11-14T04:24:24.934Z,98619.77
2018-11-14T04:26:53.169Z,98611.00
2018-11-14T04:29:21.233Z,98618.49
2018-11-14T04:31:49.399Z,98617.62
2018-11-14T04:34:17.617Z,98619.69
2018-11-14T04:36:45.883Z,98611.63
2018-11-14T04:39:13.949Z,98618.62
2018-11-14T04:41:42.045Z,98622.03
2018-11-14T04:44:10.096Z,98620.77
2018-11-14T04:46:38.225Z,98623.31
2018-11-14T04:49:06.288Z,98623.28
2018-11-14T04:51:34.384Z,98632.02
2018-11-14T04:54:02.445Z,98630.73
2018-11-14T04:56:30.503Z,98631.52
2018-11-14T04:58:58.608Z,98636.52
2018-11-14T05:01:26.666Z,98624.03
2018-11-14T05:03:54.757Z,98630.24
2018-11-14T05:06:22.925Z,98625.66
2018-11-14T05:08:51.067Z,98627.73
2018-11-14T05:11:19.140Z,98636.52
2018-11-14T05:13:47.168Z,98632.38
2018-11-14T05:16:15.237Z,98634.44
2018-11-14T05:18:43.348Z,98642.73
2018-11-14T05:21:11.464Z,98641.01
2018-11-14T05:23:39.580Z,98634.27
2018-11-14T05:26:07.897Z,98632.17
2018-11-14T05:28:35.988Z,98634.23
2018-11-14T05:31:04.387Z,98622.05
2018-11-14T05:33:32.487Z,98640.48
2018-11-14T05:36:00.581Z,98639.66
2018-11-14T05:38:28.753Z,98630.48
2018-11-14T05:40:56.852Z,98628.81
2018-11-14T05:43:24.927Z,98628.44
2018-11-14T05:45:53.205Z,98634.67
2018-11-14T05:48:21.268Z,98626.37
2018-11-14T05:50:49.413Z,98615.88
2018-11-14T05:53:17.476Z,98620.45
2018-11-14T05:55:45.562Z,98604.49
2018-11-14T05:58:13.666Z,98614.61
2018-11-14T06:00:41.767Z,98620.41
2018-11-14T06:03:09.833Z,98615.81
2018-11-14T06:05:37.930Z,98619.16
2018-11-14T06:08:06.068Z,98618.34
2018-11-14T06:10:34.130Z,98625.03
2018-11-14T06:13:02.210Z,98626.19
2018-11-14T06:15:30.462Z,98615.72
2018-11-14T06:17:58.913Z,98605.69
2018-11-14T06:20:27.160Z,98615.31
2018-11-14T06:22:55.251Z,98605.69
2018-11-14T06:25:31.403Z,98611.14
2018-11-14T06:28:00.569Z,98617.03
2018-11-14T06:30:29.056Z,98612.02
2018-11-14T06:32:57.732Z,98620.36
2018-11-14T06:35:25.837Z,98621.20
2018-11-14T06:37:54.641Z,98623.73
2018-11-14T06:40:23.031Z,98622.89
2018-11-14T06:42:51.301Z,98617.84
2018-11-14T06:45:20.512Z,98609.95
2018-11-14T06:47:49.765Z,98602.39
2018-11-14T06:50:17.865Z,98598.16
2018-11-14T06:52:47.251Z,98597.20
2018-11-14T06:55:16.542Z,98584.25
2018-11-14T06:57:44.631Z,98593.97
2018-11-14T07:00:16.263Z,98598.98
2018-11-14T07:02:45.456Z,98588.48
2018-11-14T07:05:14.935Z,98594.41
2018-11-14T07:07:43.741Z,98598.20
2018-11-14T07:10:14.080Z,98589.86
2018-11-14T07:12:42.673Z,98585.72
2018-11-14T07:15:16.136Z,98581.11
2018-11-14T07:17:44.872Z,98585.33
2018-11-14T07:20:15.842Z,98579.04
2018-11-14T07:22:44.662Z,98576.42
2018-11-14T07:25:13.207Z,98571.31
2018-11-14T07:27:41.309Z,98569.27
2018-11-14T07:30:14.933Z,98573.50
2018-11-14T07:32:44.445Z,98562.76
2018-11-14T07:35:13.954Z,98556.20
2018-11-14T07:37:43.098Z,98544.19
2018-11-14T07:40:13.265Z,98556.41
2018-11-14T07:42:42.279Z,98558.57
2018-11-14T07:45:12.821Z,98559.52
2018-11-14T07:47:40.919Z,98562.94
2018-11-14T07:50:12.572Z,98560.87
2018-11-14T07:52:40.746Z,98558.83
2018-11-14T07:55:10.103Z,98554.64
2018-11-14T07:57:38.701Z,98554.64
2018-11-14T08:00:11.666Z,98554.59
2018-11-14T08:02:39.738Z,98543.68
2018-11-14T08:05:07.828Z,98552.94
2018-11-14T08:07:35.976Z,98550.45
2018-11-14T08:10:04.703Z,98551.36
2018-11-14T08:12:32.796Z,98557.28
2018-11-14T08:15:00.906Z,98564.44
2018-11-14T08:17:28.992Z,98562.38
2018-11-14T08:19:57.089Z,98569.53
2018-11-14T08:22:25.141Z,98571.66
2018-11-14T08:24:53.256Z,98568.31
2018-11-14T08:27:21.312Z,98564.97
2018-11-14T08:29:49.423Z,98564.15
2018-11-14T08:32:17.530Z,98572.55
2018-11-14T08:34:45.634Z,98572.95
2018-11-14T08:37:19.016Z,98572.95
2018-11-14T08:39:47.087Z,98576.75
2018-11-14T08:42:15.183Z,98572.11
2018-11-14T08:44:43.245Z,98569.59
2018-11-14T08:47:11.317Z,98566.20
2018-11-14T08:49:39.426Z,98569.97
2018-11-14T08:52:07.509Z,98571.64
2018-11-14T08:54:35.619Z,98572.87
2018-11-14T08:57:03.989Z,98568.63
2018-11-14T08:59:32.065Z,98568.20
2018-11-14T09:02:00.126Z,98567.73
2018-11-14T09:04:28.186Z,98566.88
2018-11-14T09:06:56.315Z,98563.45
2018-11-14T09:09:24.367Z,98564.28
2018-11-14T09:11:52.426Z,98556.27
2018-11-14T09:14:20.539Z,98552.90
2018-11-14T09:16:48.592Z,98549.03
2018-11-14T09:19:16.653Z,98535.52
2018-11-14T09:21:44.751Z,98537.56
2018-11-14T09:24:12.823Z,98532.88
2018-11-14T09:26:40.925Z,98533.22
2018-11-14T09:29:09.017Z,98533.59
2018-11-14T09:31:37.101Z,98537.36
2018-11-14T09:34:05.169Z,98532.61
2018-11-14T09:36:33.250Z,98536.71
2018-11-14T09:39:01.312Z,98534.13
2018-11-14T09:41:29.466Z,98534.02
2018-11-14T09:43:57.429Z,98522.14
2018-11-14T09:46:25.497Z,98519.97
2018-11-14T09:48:53.660Z,98515.63
2018-11-14T09:51:21.733Z,98513.91
2018-11-14T09:53:49.858Z,98517.11
2018-11-14T09:56:18.001Z,98513.59
2018-11-14T09:58:46.076Z,98517.70
2018-11-14T10:01:14.096Z,98522.56
2018-11-14T10:03:42.249Z,98523.02
2018-11-14T10:06:10.347Z,98522.31
2018-11-14T10:08:38.421Z,98513.83
2018-11-14T10:11:06.517Z,98510.79
2018-11-14T10:13:34.617Z,98512.27
2018-11-14T10:16:02.707Z,98510.52
2018-11-14T10:18:30.818Z,98509.82
2018-11-14T10:20:58.964Z,98496.88
2018-11-14T10:23:27.080Z,98493.97
2018-11-14T10:25:55.157Z,98493.28
2018-11-14T10:28:23.305Z,98491.78
2018-11-14T10:30:51.462Z,98489.45
2018-11-14T10:33:19.529Z,98489.02
2018-11-14T10:35:47.781Z,98492.57
2018-11-14T10:38:16.265Z,98486.83
2018-11-14T10:40:45.865Z,98484.37
2018-11-14T10:43:14.117Z,98482.52
2018-11-14T10:45:42.262Z,98470.45
2018-11-14T10:48:10.438Z,98472.72
2018-11-14T10:50:38.820Z,98469.89
2018-11-14T10:53:06.949Z,98467.50
2018-11-14T10:55:35.101Z,98463.94
2018-11-14T10:58:03.212Z,98465.77
2018-11-14T11:00:36.624Z,98462.91
2018-11-14T11:03:10.152Z,98459.02
2018-11-14T11:05:43.642Z,98462.84
2018-11-14T11:08:18.230Z,98453.75
2018-11-14T11:10:52.293Z,98455.56
2018-11-14T11:13:25.868Z,98447.22
2018-11-14T11:15:59.309Z,98449.88
2018-11-14T11:18:28.852Z,98446.41
2018-11-14T11:20:56.915Z,98443.16
2018-11-14T11:23:25.089Z,98444.45
2018-11-14T11:25:53.149Z,98437.69
2018-11-14T11:28:21.599Z,98433.95
2018-11-14T11:30:49.776Z,98425.81
2018-11-14T11:33:17.832Z,98428.36
2018-11-14T11:35:45.991Z,98433.94
2018-11-14T11:38:14.389Z,98428.48
2018-11-14T11:40:42.555Z,98423.33
2018-11-14T11:43:10.581Z,98422.80
2018-11-14T11:45:38.704Z,98418.41
2018-11-14T11:48:06.837Z,98408.41
2018-11-14T11:50:34.940Z,98418.80
2018-11-14T11:53:03.048Z,98413.07
2018-11-14T11:55:31.108Z,98409.67
2018-11-14T11:57:59.174Z,98400.92
2018-11-14T12:00:27.394Z,98400.50
2018-11-14T12:02:55.342Z,98399.12
2018-11-14T12:05:23.402Z,98400.49
2018-11-14T12:07:51.541Z,98391.36
2018-11-14T12:10:19.673Z,98395.62
2018-11-14T12:12:47.756Z,98389.86
2018-11-14T12:15:15.865Z,98387.45
2018-11-14T12:17:44.448Z,98387.16
2018-11-14T12:20:13.930Z,98382.88
2018-11-14T12:22:42.611Z,98386.63
2018-11-14T12:25:13.185Z,98390.39
2018-11-14T12:27:41.307Z,98387.19
2018-11-14T12:30:11.919Z,98389.91
2018-11-14T12:32:40.184Z,98392.98
2018-11-14T12:35:09.895Z,98386.80
2018-11-14T12:37:37.912Z,98383.59
2018-11-14T12:40:07.352Z,98385.03
2018-11-14T12:42:35.467Z,98379.19
2018-11-14T12:45:03.628Z,98382.17
2018-11-14T12:47:31.723Z,98375.42
2018-11-14T12:49:59.805Z,98373.78
2018-11-14T12:52:28.045Z,98368.94
2018-11-14T12:54:56.134Z,98373.27
2018-11-14T12:57:24.220Z,98376.05
2018-11-14T12:59:52.346Z,98374.12
2018-11-14T13:02:20.431Z,98374.41
2018-11-14T13:04:48.603Z,98367.98
2018-11-14T13:07:16.705Z,98360.63
2018-11-14T13:09:45.344Z,98367.52
2018-11-14T13:12:13.445Z,98364.06
2018-11-14T13:14:41.512Z,98359.80
2018-11-14T13:17:09.552Z,98358.59
2018-11-14T13:19:37.657Z,98356.73
2018-11-14T13:22:05.720Z,98352.77
2018-11-14T13:24:33.793Z,98358.48
2018-11-14T13:27:01.924Z,98356.73
2018-11-14T13:29:30.496Z,98342.02
2018-11-14T13:31:58.604Z,98351.09
2018-11-14T13:34:26.943Z,98358.09
2018-11-14T13:36:55.101Z,98352.14
2018-11-14T13:39:23.170Z,98359.03
2018-11-14T13:41:51.277Z,98356.05
2018-11-14T13:44:19.380Z,98350.66
2018-11-14T13:46:47.477Z,98344.68
2018-11-14T13:49:15.827Z,98347.05
2018-11-14T13:51:43.613Z,98348.55
2018-11-14T13:54:11.724Z,98344.72
2018-11-14T13:56:39.828Z,98341.51
2018-11-14T13:59:07.911Z,98330.91
2018-11-14T14:01:35.997Z,98348.14
2018-11-14T14:04:04.254Z,98350.15
2018-11-14T14:06:32.435Z,98349.20
2018-11-14T14:09:00.584Z,98352.22
2018-11-14T14:11:28.721Z,98350.11
2018-11-14T14:14:02.262Z,98356.38
2018-11-14T14:16:30.442Z,98355.53
2018-11-14T14:18:58.463Z,98360.08
2018-11-14T14:21:26.564Z,98356.27
2018-11-14T14:23:54.649Z,98360.41
2018-11-14T14:26:22.750Z,98349.48
2018-11-14T14:28:51.685Z,98352.26
2018-11-14T14:31:19.858Z,98356.20
2018-11-14T14:33:47.962Z,98348.84
2018-11-14T14:36:16.050Z,98357.11
2018-11-14T14:38:44.203Z,98340.30
2018-11-14T14:41:12.284Z,98347.34
2018-11-14T14:43:40.348Z,98344.59
2018-11-14T14:46:08.431Z,98351.60
2018-11-14T14:48:36.514Z,98357.26
2018-11-14T14:51:04.965Z,98342.58
2018-11-14T14:53:33.056Z,98358.83
2018-11-14T14:56:01.141Z,98345.55
2018-11-14T14:58:29.214Z,98351.70
2018-11-14T15:00:57.272Z,98349.77
2018-11-14T15:03:25.389Z,98362.56
2018-11-14T15:05:53.536Z,98356.59
2018-11-14T15:08:21.612Z,98343.16
2018-11-14T15:10:49.746Z,98360.13
2018-11-14T15:13:17.833Z,98355.14
2018-11-14T15:15:46.134Z,98357.69
2018-11-14T15:18:14.105Z,98355.10
2018-11-14T15:20:42.210Z,98346.64
2018-11-14T15:23:10.414Z,98355.02
2018-11-14T15:25:38.584Z,98351.42
2018-11-14T15:28:06.843Z,98353.13
2018-11-14T15:30:35.057Z,98351.09
2018-11-14T15:33:03.203Z,98341.33
2018-11-14T15:35:31.312Z,98338.30
2018-11-14T15:37:59.397Z,98329.20
2018-11-14T15:40:27.949Z,98330.69
2018-11-14T15:42:56.166Z,98326.20
2018-11-14T15:45:25.751Z,98326.52
2018-11-14T15:47:53.839Z,98330.02
2018-11-14T15:50:23.310Z,98322.52
2018-11-14T15:52:52.319Z,98321.84
2018-11-14T15:55:20.878Z,98319.84
2018-11-14T15:57:48.965Z,98326.02
2018-11-14T16:00:25.418Z,98315.77
2018-11-14T16:02:53.490Z,98321.27
2018-11-14T16:05:22.779Z,98311.20
2018-11-14T16:07:52.214Z,98318.20
2018-11-14T16:10:21.706Z,98312.94
2018-11-14T16:12:49.805Z,98315.87
2018-11-14T16:15:19.503Z,98317.09
2018-11-14T16:17:47.633Z,98318.98
2018-11-14T16:20:18.198Z,98318.33
2018-11-14T16:22:46.361Z,98318.27
2018-11-14T16:25:15.861Z,98317.66
2018-11-14T16:27:44.905Z,98313.97
2018-11-14T16:30:17.481Z,98317.17
2018-11-14T16:32:46.652Z,98323.03
2018-11-14T16:35:14.886Z,98320.73
2018-11-14T16:37:43.507Z,98322.70
2018-11-14T16:40:16.469Z,98318.22
2018-11-14T16:42:44.673Z,98325.56
2018-11-14T16:45:13.712Z,98326.17
2018-11-14T16:47:42.190Z,98320.77
2018-11-14T16:50:12.469Z,98320.85
2018-11-14T16:52:40.904Z,98319.55
2018-11-14T16:55:13.072Z,98321.72
2018-11-14T16:57:43.721Z,98318.83
2018-11-14T17:00:15.625Z,98324.58
2018-11-14T17:02:43.873Z,98330.06
2018-11-14T17:05:12.802Z,98328.28
2018-11-14T17:07:40.889Z,98326.80
2018-11-14T17:10:11.494Z,98326.60
2018-11-14T17:12:39.602Z,98322.95
2018-11-14T17:15:09.568Z,98318.81
2018-11-14T17:17:37.703Z,98314.95
2018-11-14T17:20:06.489Z,98322.11
2018-11-14T17:22:34.567Z,98324.68
2018-11-14T17:25:02.667Z,98326.73
2018-11-14T17:27:30.756Z,98332.15
2018-11-14T17:29:58.828Z,98334.82
2018-11-14T17:32:26.928Z,98333.92
2018-11-14T17:34:55.053Z,98333.42
2018-11-14T17:37:23.158Z,98341.28
2018-11-14T17:39:51.302Z,98336.58
2018-11-14T17:42:19.494Z,98332.77
2018-11-14T17:44:47.535Z,98333.37
2018-11-14T17:47:15.657Z,98338.11
2018-11-14T17:49:43.780Z,98331.84
2018-11-14T17:52:11.856Z,98335.64
2018-11-14T17:54:39.926Z,98342.20
2018-11-14T17:57:08.038Z,98345.81
2018-11-14T17:59:36.165Z,98348.83
2018-11-14T18:02:04.626Z,98347.70
2018-11-14T18:04:32.734Z,98348.97
2018-11-14T18:07:01.009Z,98352.68
2018-11-14T18:09:29.097Z,98351.41
2018-11-14T18:11:57.212Z,98356.28
2018-11-14T18:14:25.458Z,98359.16
2018-11-14T18:16:53.530Z,98356.28
2018-11-14T18:19:21.599Z,98353.88
2018-11-14T18:21:49.678Z,98355.63
2018-11-14T18:24:17.781Z,98349.59
2018-11-14T18:26:45.926Z,98350.30
2018-11-14T18:29:14.061Z,98355.27
2018-11-14T18:31:42.167Z,98360.14
2018-11-14T18:34:10.258Z,98356.53
2018-11-14T18:36:38.318Z,98353.42
2018-11-14T18:39:09.561Z,98356.49
2018-11-14T18:41:37.650Z,98355.88
2018-11-14T18:44:05.804Z,98351.23
2018-11-14T18:46:33.906Z,98351.84
2018-11-14T18:49:01.961Z,98354.44
2018-11-14T18:51:30.055Z,98355.41
2018-11-14T18:53:58.134Z,98354.14
2018-11-14T18:56:26.210Z,98358.65
2018-11-14T18:58:54.330Z,98352.55
2018-11-14T19:01:22.454Z,98351.83
2018-11-14T19:03:50.614Z,98347.16
2018-11-14T19:06:18.745Z,98353.03
2018-11-14T19:08:47.349Z,98342.53
2018-11-14T19:11:15.421Z,98355.35
2018-11-14T19:13:43.510Z,98349.91
2018-11-14T19:16:11.631Z,98342.13
2018-11-14T19:18:39.775Z,98345.67
2018-11-14T19:21:07.812Z,98343.22
2018-11-14T19:23:35.933Z,98340.55
2018-11-14T19:26:04.082Z,98347.92
2018-11-14T19:28:32.294Z,98352.04
2018-11-14T19:31:00.372Z,98351.25
2018-11-14T19:33:28.445Z,98345.39
2018-11-14T19:35:56.502Z,98343.55
2018-11-14T19:38:24.719Z,98347.34
2018-11-14T19:40:52.793Z,98344.35
2018-11-14T19:43:20.868Z,98344.50
2018-11-14T19:45:48.960Z,98336.33
2018-11-14T19:48:17.012Z,98342.84
2018-11-14T19:50:45.065Z,98338.00
2018-11-14T19:53:13.173Z,98343.09
2018-11-14T19:55:41.312Z,98335.88
2018-11-14T19:58:09.351Z,98336.73
2018-11-14T20:00:38.827Z,98342.62
2018-11-14T20:03:07.391Z,98340.61
2018-11-14T20:05:35.518Z,98330.54
2018-11-14T20:08:03.572Z,98333.88
2018-11-14T20:10:32.938Z,98328.58
2018-11-14T20:13:01.025Z,98332.92
2018-11-14T20:15:31.746Z,98331.70
2018-11-14T20:17:59.783Z,98332.17
2018-11-14T20:20:29.461Z,98328.05
2018-11-14T20:22:57.528Z,98329.35
2018-11-14T20:25:25.744Z,98330.23
2018-11-14T20:27:53.870Z,98326.07
2018-11-14T20:30:23.489Z,98325.27
2018-11-14T20:32:52.246Z,98325.77
2018-11-14T20:35:21.345Z,98322.78
2018-11-14T20:37:49.457Z,98324.80
2018-11-14T20:40:19.165Z,98329.81
2018-11-14T20:42:47.970Z,98332.81
2018-11-14T20:45:17.525Z,98330.79
2018-11-14T20:47:45.633Z,98332.89
2018-11-14T20:50:16.138Z,98327.16
2018-11-14T20:52:45.146Z,98326.77
2018-11-14T20:55:13.503Z,98329.65
2018-11-14T20:57:42.253Z,98328.00
2018-11-14T21:00:13.449Z,98337.34
2018-11-14T21:02:42.212Z,98332.67
2018-11-14T21:05:11.640Z,98328.04
2018-11-14T21:07:39.811Z,98329.27
2018-11-14T21:10:10.261Z,98330.48
2018-11-14T21:12:38.828Z,98332.71
2018-11-14T21:15:08.037Z,98336.84
2018-11-14T21:17:36.266Z,98330.14
2018-11-14T21:20:06.297Z,98329.69
2018-11-14T21:22:34.358Z,98325.89
2018-11-14T21:25:02.508Z,98321.34
2018-11-14T21:27:30.521Z,98317.59
2018-11-14T21:29:59.203Z,98320.12
2018-11-14T21:32:27.249Z,98321.38
2018-11-14T21:34:55.362Z,98327.43
2018-11-14T21:37:23.462Z,98326.94
2018-11-14T21:39:51.620Z,98325.98
2018-11-14T21:42:19.718Z,98323.95
2018-11-14T21:44:48.053Z,98315.48
2018-11-14T21:47:16.128Z,98315.65
2018-11-14T21:49:44.238Z,98316.14
2018-11-14T21:52:12.359Z,98317.41
2018-11-14T21:54:40.607Z,98311.90
2018-11-14T21:57:08.662Z,98309.75
2018-11-14T21:59:36.804Z,98310.55
2018-11-14T22:02:04.938Z,98307.91
2018-11-14T22:04:33.039Z,98309.17
2018-11-14T22:07:01.174Z,98310.02
2018-11-14T22:09:29.300Z,98308.33
2018-11-14T22:11:57.374Z,98309.66
2018-11-14T22:14:25.453Z,98308.89
2018-11-14T22:16:53.498Z,98313.94
2018-11-14T22:19:21.601Z,98308.86
2018-11-14T22:21:49.646Z,98305.98
2018-11-14T22:24:17.700Z,98303.11
2018-11-14T22:26:45.782Z,98301.03
2018-11-14T22:29:13.886Z,98305.70
2018-11-14T22:31:42.173Z,98298.02
2018-11-14T22:34:10.246Z,98300.94
2018-11-14T22:36:38.608Z,98305.59
2018-11-14T22:39:08.712Z,98300.09
2018-11-14T22:41:36.787Z,98296.27
2018-11-14T22:44:05.154Z,98295.42
2018-11-14T22:46:33.341Z,98298.05
2018-11-14T22:49:01.650Z,98294.20
2018-11-14T22:51:30.237Z,98296.27
2018-11-14T22:53:58.368Z,98294.16
2018-11-14T22:56:26.525Z,98288.27
2018-11-14T22:58:54.594Z,98298.80
2018-11-14T23:01:22.726Z,98296.72
2018-11-14T23:03:50.788Z,98289.58
2018-11-14T23:06:18.901Z,98290.97
2018-11-14T23:08:47.000Z,98293.11
2018-11-14T23:11:15.213Z,98292.79
2018-11-14T23:13:43.314Z,98286.97
2018-11-14T23:16:11.376Z,98292.34
2018-11-14T23:18:39.445Z,98298.64
2018-11-14T23:21:07.613Z,98294.86
2018-11-14T23:23:35.705Z,98300.00
2018-11-14T23:26:03.785Z,98308.41
2018-11-14T23:28:31.868Z,98305.95
2018-11-14T23:30:59.949Z,98303.94
2018-11-14T23:33:28.148Z,98303.58
2018-11-14T23:35:56.478Z,98302.00
2018-11-14T23:38:24.590Z,98295.36
2018-11-14T23:40:52.656Z,98297.46
2018-11-14T23:43:20.716Z,98297.95
2018-11-14T23:45:48.986Z,98289.19
2018-11-14T23:48:17.061Z,98297.58
2018-11-14T23:50:45.162Z,98289.53
2018-11-14T23:53:13.252Z,98289.97
2018-11-14T23:55:41.328Z,98285.33
2018-11-14T23:58:09.460Z,98280.68
